Time;durP1;ratioP1;P1;durP2;ratioP2;P2;SDS_P1;SDS_P2;PMS_P1;PMS_P2;Temp;Humidity;BMP_temperature;BMP_pressure;BME280_temperature;BME280_humidity;BME280_pressure;Samples;Min_cycle;Max_cycle;Signal;HPM_P1;HPM_P2
2023/06/26 00:00:37;;;;;;;;;5.75;3.75;;;;;;;;5064406;28;8806;-84
2023/06/26 00:03:04;;;;;;;;;4.00;4.00;;;;;;;;5070259;28;8825;-84
2023/06/26 00:05:32;;;;;;;;;5.40;4.00;;;;;;;;5054766;28;8865;-84
2023/06/26 00:08:04;;;;;;;;;2.25;2.25;;;;;;;;5055216;28;8874;-84
2023/06/26 00:10:34;;;;;;;;;4.80;4.80;;;;;;;;5054805;28;8849;-84
2023/06/26 00:13:01;;;;;;;;;5.50;5.50;;;;;;;;5055090;28;8869;-84
2023/06/26 00:15:31;;;;;;;;;3.00;3.00;;;;;;;;5055340;28;8860;-85
2023/06/26 00:18:00;;;;;;;;;3.75;3.75;;;;;;;;5064222;28;8873;-85
2023/06/26 00:20:33;;;;;;;;;3.50;3.50;;;;;;;;5052439;28;8976;-83
2023/06/26 00:23:04;;;;;;;;;6.50;4.75;;;;;;;;5061864;28;8895;-83
2023/06/26 00:25:31;;;;;;;;;4.75;4.00;;;;;;;;5055239;28;8896;-85
2023/06/26 00:28:01;;;;;;;;;4.00;2.50;;;;;;;;5053070;28;8976;-84
2023/06/26 00:30:31;;;;;;;;;4.50;4.50;;;;;;;;5053867;28;8742;-86
2023/06/26 00:33:00;;;;;;;;;3.75;3.75;;;;;;;;5052305;28;8873;-85
2023/06/26 00:35:28;;;;;;;;;5.50;3.75;;;;;;;;5053343;28;8872;-84
2023/06/26 00:37:55;;;;;;;;;2.75;2.25;;;;;;;;5051446;28;8911;-84
2023/06/26 00:40:22;;;;;;;;;3.00;3.00;;;;;;;;5051125;28;8850;-85
2023/06/26 00:42:50;;;;;;;;;4.75;4.75;;;;;;;;5061173;28;9492;-86
2023/06/26 00:45:18;;;;;;;;;5.75;5.75;;;;;;;;5050549;28;8971;-85
2023/06/26 00:47:46;;;;;;;;;6.25;5.00;;;;;;;;5050656;28;8845;-85
2023/06/26 00:50:17;;;;;;;;;4.50;4.50;;;;;;;;5050703;28;8850;-85
2023/06/26 00:52:45;;;;;;;;;6.00;6.00;;;;;;;;5060896;28;8971;-85
2023/06/26 00:55:12;;;;;;;;;4.50;4.50;;;;;;;;5052890;28;8980;-86
2023/06/26 00:57:40;;;;;;;;;4.75;4.75;;;;;;;;5051208;28;8873;-85
2023/06/26 01:00:11;;;;;;;;;5.00;5.00;;;;;;;;5063404;28;9007;-85
2023/06/26 01:02:38;;;;;;;;;4.75;4.75;;;;;;;;5052715;28;8853;-86
2023/06/26 01:05:07;;;;;;;;;5.75;5.75;;;;;;;;5052631;28;8903;-85
2023/06/26 01:07:39;;;;;;;;;6.00;6.00;;;;;;;;5058640;28;8845;-86
2023/06/26 01:10:07;;;;;;;;;6.50;4.75;;;;;;;;5055384;28;8988;-87
2023/06/26 01:12:35;;;;;;;;;6.00;6.00;;;;;;;;5056342;28;8865;-85
2023/06/26 01:15:03;;;;;;;;;3.75;3.75;;;;;;;;5051319;28;8872;-87
2023/06/26 01:17:31;;;;;;;;;6.00;6.00;;;;;;;;5052116;28;8872;-87
2023/06/26 01:19:59;;;;;;;;;6.50;6.25;;;;;;;;5063316;28;8861;-86
2023/06/26 01:22:33;;;;;;;;;4.75;4.50;;;;;;;;5055020;28;8915;-87
2023/06/26 01:25:17;;;;;;;;;5.50;4.50;;;;;;;;5063912;28;8899;-85
2023/06/26 01:27:48;;;;;;;;;4.00;4.00;;;;;;;;5053499;28;8876;-84
2023/06/26 01:30:16;;;;;;;;;4.75;4.75;;;;;;;;5049723;28;8865;-86
2023/06/26 01:32:44;;;;;;;;;4.00;4.00;;;;;;;;5049824;28;8849;-83
2023/06/26 01:35:13;;;;;;;;;5.25;5.25;;;;;;;;5049088;28;8869;-84
2023/06/26 01:37:40;;;;;;;;;5.50;4.25;;;;;;;;5051657;28;8845;-86
2023/06/26 01:40:11;;;;;;;;;6.75;6.00;;;;;;;;5050360;28;8846;-83
2023/06/26 01:42:38;;;;;;;;;4.50;4.00;;;;;;;;5053663;28;8900;-84
2023/06/26 01:45:12;;;;;;;;;6.00;4.25;;;;;;;;5054946;28;8873;-85
2023/06/26 01:47:42;;;;;;;;;5.50;4.75;;;;;;;;5056481;28;9402;-85
2023/06/26 01:50:14;;;;;;;;;5.75;4.00;;;;;;;;5053600;28;8880;-84
2023/06/26 01:52:43;;;;;;;;;3.75;3.75;;;;;;;;5052772;28;8849;-85
2023/06/26 01:55:17;;;;;;;;;4.50;3.00;;;;;;;;5062073;28;8861;-85
2023/06/26 01:57:45;;;;;;;;;4.75;4.75;;;;;;;;5059535;28;8861;-86
2023/06/26 02:00:17;;;;;;;;;3.75;3.25;;;;;;;;5053630;28;8833;-85
2023/06/26 02:02:45;;;;;;;;;4.50;4.50;;;;;;;;5057148;28;8920;-86
2023/06/26 02:05:13;;;;;;;;;4.00;4.00;;;;;;;;5055007;28;8900;-85
2023/06/26 02:07:41;;;;;;;;;3.75;3.75;;;;;;;;5049296;28;9739;-84
2023/06/26 02:10:09;;;;;;;;;4.00;3.75;;;;;;;;5054946;28;9574;-86
2023/06/26 02:12:39;;;;;;;;;4.75;4.00;;;;;;;;5053678;28;8875;-85
2023/06/26 02:15:08;;;;;;;;;2.00;2.00;;;;;;;;5050098;28;8987;-84
2023/06/26 02:17:38;;;;;;;;;5.00;4.50;;;;;;;;5052200;28;8877;-85
2023/06/26 02:20:11;;;;;;;;;2.75;2.75;;;;;;;;5042431;28;8850;-85
2023/06/26 02:22:38;;;;;;;;;3.25;3.25;;;;;;;;5044976;28;8876;-84
2023/06/26 02:25:09;;;;;;;;;4.50;4.50;;;;;;;;5049863;28;8866;-86
2023/06/26 02:27:39;;;;;;;;;4.50;4.50;;;;;;;;5055137;28;8950;-86
2023/06/26 02:30:09;;;;;;;;;2.50;2.50;;;;;;;;5055831;28;8862;-85
2023/06/26 02:32:37;;;;;;;;;4.00;4.00;;;;;;;;5051089;28;8946;-85
2023/06/26 02:35:08;;;;;;;;;4.25;3.25;;;;;;;;5055625;28;8862;-86
2023/06/26 02:37:37;;;;;;;;;5.00;2.75;;;;;;;;5049178;28;8881;-87
2023/06/26 02:40:09;;;;;;;;;2.50;2.50;;;;;;;;5052872;28;8859;-85
2023/06/26 02:42:36;;;;;;;;;3.00;3.00;;;;;;;;5057986;28;8938;-86
2023/06/26 02:45:04;;;;;;;;;3.00;3.00;;;;;;;;5049013;28;8904;-87
2023/06/26 02:47:34;;;;;;;;;4.33;2.67;;;;;;;;5049181;28;9008;-86
2023/06/26 02:50:03;;;;;;;;;2.50;1.75;;;;;;;;5050271;28;8917;-85
2023/06/26 02:52:30;;;;;;;;;3.00;3.00;;;;;;;;5049200;28;8967;-85
2023/06/26 02:54:59;;;;;;;;;1.75;1.75;;;;;;;;5049616;28;8932;-86
2023/06/26 02:57:27;;;;;;;;;2.75;2.75;;;;;;;;5048950;28;8853;-86
2023/06/26 02:59:54;;;;;;;;;2.25;2.25;;;;;;;;5049234;28;8873;-85
2023/06/26 03:02:21;;;;;;;;;3.75;3.75;;;;;;;;5049003;28;8986;-87
2023/06/26 03:04:49;;;;;;;;;2.00;2.00;;;;;;;;5050306;28;8870;-86
2023/06/26 03:07:18;;;;;;;;;5.00;2.00;;;;;;;;5050456;28;8853;-86
2023/06/26 03:09:46;;;;;;;;;2.25;2.25;;;;;;;;5053241;28;8996;-87
2023/06/26 03:12:14;;;;;;;;;1.25;1.25;;;;;;;;5063701;28;8935;-85
2023/06/26 03:14:41;;;;;;;;;2.00;2.00;;;;;;;;5052134;28;9655;-83
2023/06/26 03:17:08;;;;;;;;;2.25;2.25;;;;;;;;5043878;28;8967;-80
2023/06/26 03:19:36;;;;;;;;;1.75;1.75;;;;;;;;5055752;28;8861;-84
2023/06/26 03:22:03;;;;;;;;;4.75;2.00;;;;;;;;5064339;28;9023;-86
2023/06/26 03:24:34;;;;;;;;;3.75;2.25;;;;;;;;5054687;28;9643;-84
2023/06/26 03:27:01;;;;;;;;;2.25;2.00;;;;;;;;5051956;28;8845;-84
2023/06/26 03:29:29;;;;;;;;;6.75;3.00;;;;;;;;5069031;28;9009;-84
2023/06/26 03:31:59;;;;;;;;;2.75;2.75;;;;;;;;5059772;28;8795;-85
2023/06/26 03:34:30;;;;;;;;;2.75;2.75;;;;;;;;5056135;28;8849;-83
2023/06/26 03:37:01;;;;;;;;;4.50;3.00;;;;;;;;5051915;28;8846;-84
2023/06/26 03:39:30;;;;;;;;;2.00;2.00;;;;;;;;5059241;28;8881;-84
2023/06/26 03:42:00;;;;;;;;;2.50;2.25;;;;;;;;5052364;28;8866;-84
2023/06/26 03:44:28;;;;;;;;;2.00;2.00;;;;;;;;5053500;28;8865;-85
2023/06/26 03:46:55;;;;;;;;;3.00;3.00;;;;;;;;5056060;28;8844;-85
2023/06/26 03:49:22;;;;;;;;;4.50;3.25;;;;;;;;5056777;28;8849;-85
2023/06/26 03:51:50;;;;;;;;;3.50;1.75;;;;;;;;5055238;28;8858;-84
2023/06/26 03:54:17;;;;;;;;;2.00;2.00;;;;;;;;5059408;28;8849;-86
2023/06/26 03:56:44;;;;;;;;;5.00;1.50;;;;;;;;5057770;28;8877;-84
2023/06/26 03:59:13;;;;;;;;;2.25;2.25;;;;;;;;5047160;28;8866;-85
2023/06/26 04:01:40;;;;;;;;;4.25;2.75;;;;;;;;5056423;28;8781;-84
2023/06/26 04:04:08;;;;;;;;;4.50;4.50;;;;;;;;5051937;28;8918;-85
2023/06/26 04:06:37;;;;;;;;;3.50;3.50;;;;;;;;5052376;28;8871;-83
2023/06/26 04:09:09;;;;;;;;;2.75;2.75;;;;;;;;5052305;28;9004;-83
2023/06/26 04:11:36;;;;;;;;;2.00;2.00;;;;;;;;5051884;28;8851;-86
2023/06/26 04:14:04;;;;;;;;;3.50;3.00;;;;;;;;5051466;28;8887;-84
2023/06/26 04:16:32;;;;;;;;;4.00;4.00;;;;;;;;5051356;28;8859;-82
2023/06/26 04:19:02;;;;;;;;;2.25;2.25;;;;;;;;5054247;28;8849;-81
2023/06/26 04:21:29;;;;;;;;;2.75;2.75;;;;;;;;5058641;28;8846;-77
2023/06/26 04:23:56;;;;;;;;;3.00;3.00;;;;;;;;5070019;28;8863;-78
2023/06/26 04:26:24;;;;;;;;;2.75;2.75;;;;;;;;5068679;28;8871;-78
2023/06/26 04:28:51;;;;;;;;;3.75;3.75;;;;;;;;5069694;28;8839;-79
2023/06/26 04:31:18;;;;;;;;;4.00;2.25;;;;;;;;5068077;28;8811;-78
2023/06/26 04:33:50;;;;;;;;;2.50;2.50;;;;;;;;5068758;28;8977;-81
2023/06/26 04:36:18;;;;;;;;;2.50;2.50;;;;;;;;5067927;28;8851;-83
2023/06/26 04:38:45;;;;;;;;;2.50;2.25;;;;;;;;5068918;28;8851;-80
2023/06/26 04:41:12;;;;;;;;;3.00;3.00;;;;;;;;5068385;28;8849;-80
2023/06/26 04:43:39;;;;;;;;;4.00;2.00;;;;;;;;5056710;28;8833;-80
2023/06/26 04:46:07;;;;;;;;;8.00;4.50;;;;;;;;5049550;28;9005;-80
2023/06/26 04:48:34;;;;;;;;;3.75;2.00;;;;;;;;5050173;28;8854;-81
2023/06/26 04:51:03;;;;;;;;;5.50;2.50;;;;;;;;5049925;28;8879;-81
2023/06/26 04:53:32;;;;;;;;;2.25;2.25;;;;;;;;5051101;28;8880;-78
2023/06/26 04:56:03;;;;;;;;;4.25;2.50;;;;;;;;5040328;28;8880;-82
2023/06/26 04:58:30;;;;;;;;;4.50;3.25;;;;;;;;5050879;28;8893;-79
2023/06/26 05:00:58;;;;;;;;;2.50;2.50;;;;;;;;5054773;28;8796;-78
2023/06/26 05:03:25;;;;;;;;;3.00;2.75;;;;;;;;5053630;28;8874;-80
2023/06/26 05:05:53;;;;;;;;;4.50;3.00;;;;;;;;5052559;28;8884;-83
2023/06/26 05:08:23;;;;;;;;;6.75;3.50;;;;;;;;5061642;28;8887;-84
2023/06/26 05:10:53;;;;;;;;;2.00;2.00;;;;;;;;5056616;28;8983;-86
2023/06/26 05:13:20;;;;;;;;;5.25;4.00;;;;;;;;5062102;28;8915;-83
2023/06/26 05:15:48;;;;;;;;;3.25;3.25;;;;;;;;5064663;28;8859;-84
2023/06/26 05:18:15;;;;;;;;;4.75;3.00;;;;;;;;5052615;28;8978;-82
2023/06/26 05:20:43;;;;;;;;;3.25;3.00;;;;;;;;5061852;28;8961;-82
2023/06/26 05:23:12;;;;;;;;;3.00;3.00;;;;;;;;5058668;28;8983;-84
2023/06/26 05:25:42;;;;;;;;;2.00;2.00;;;;;;;;5067994;28;8881;-86
2023/06/26 05:28:11;;;;;;;;;6.50;4.00;;;;;;;;5068179;28;8866;-80
2023/06/26 05:30:39;;;;;;;;;2.75;2.75;;;;;;;;5056024;28;8779;-82
2023/06/26 05:33:07;;;;;;;;;2.75;2.75;;;;;;;;5050839;28;9018;-81
2023/06/26 05:35:35;;;;;;;;;4.25;3.75;;;;;;;;5070489;28;8839;-82
2023/06/26 05:38:03;;;;;;;;;3.75;2.75;;;;;;;;5063924;28;8965;-82
2023/06/26 05:41:09;;;;;;;;;4.50;2.00;;;;;;;;5058257;28;8977;-82
2023/06/26 05:43:38;;;;;;;;;4.25;4.25;;;;;;;;5051847;28;8861;-80
2023/06/26 05:46:06;;;;;;;;;3.25;3.00;;;;;;;;5050146;28;8885;-82
2023/06/26 05:48:33;;;;;;;;;3.75;3.75;;;;;;;;5050507;28;8999;-81
2023/06/26 05:51:06;;;;;;;;;4.25;4.25;;;;;;;;5053214;28;8854;-81
2023/06/26 05:53:38;;;;;;;;;4.25;2.75;;;;;;;;5055812;28;8857;-81
2023/06/26 05:56:18;;;;;;;;;9.25;5.75;;;;;;;;5053731;28;8869;-81
2023/06/26 05:58:47;;;;;;;;;5.25;4.00;;;;;;;;5062666;28;8896;-80
2023/06/26 06:01:18;;;;;;;;;4.75;4.75;;;;;;;;5048655;28;8930;-81
2023/06/26 06:03:46;;;;;;;;;4.75;4.00;;;;;;;;5056825;28;8857;-84
2023/06/26 06:06:13;;;;;;;;;6.00;4.25;;;;;;;;5049329;28;8896;-81
2023/06/26 06:08:40;;;;;;;;;6.25;6.00;;;;;;;;5062977;28;8976;-80
2023/06/26 06:11:08;;;;;;;;;4.75;4.75;;;;;;;;5049926;28;8995;-79
2023/06/26 06:13:35;;;;;;;;;6.00;6.00;;;;;;;;5050947;28;8927;-76
2023/06/26 06:16:04;;;;;;;;;5.75;5.75;;;;;;;;5048705;28;8830;-76
2023/06/26 06:18:31;;;;;;;;;5.25;5.25;;;;;;;;5048355;28;8857;-78
2023/06/26 06:20:58;;;;;;;;;4.75;4.75;;;;;;;;5049369;28;8999;-78
2023/06/26 06:23:25;;;;;;;;;4.25;4.25;;;;;;;;5050804;28;8850;-79
2023/06/26 06:25:53;;;;;;;;;6.50;5.25;;;;;;;;5051454;28;8861;-81
2023/06/26 06:28:20;;;;;;;;;5.00;5.00;;;;;;;;5053303;28;8853;-80
2023/06/26 06:30:47;;;;;;;;;7.25;7.25;;;;;;;;5052178;28;8782;-79
2023/06/26 06:33:16;;;;;;;;;3.50;3.50;;;;;;;;5065012;28;8880;-81
2023/06/26 06:35:44;;;;;;;;;6.50;5.25;;;;;;;;5064015;28;8957;-78
2023/06/26 06:38:11;;;;;;;;;7.50;5.75;;;;;;;;5051560;28;8887;-81
2023/06/26 06:40:38;;;;;;;;;4.50;4.50;;;;;;;;5061428;28;8990;-77
2023/06/26 06:43:06;;;;;;;;;8.25;5.00;;;;;;;;5055080;28;8960;-79
2023/06/26 06:45:33;;;;;;;;;7.00;5.50;;;;;;;;5047406;28;8865;-79
2023/06/26 06:48:00;;;;;;;;;28.00;27.75;;;;;;;;5036498;28;8991;-81
2023/06/26 06:50:29;;;;;;;;;15.00;15.00;;;;;;;;5048689;28;9264;-79
2023/06/26 06:52:56;;;;;;;;;14.50;14.50;;;;;;;;5047817;28;8865;-81
2023/06/26 06:55:25;;;;;;;;;37.25;30.25;;;;;;;;5049515;28;8877;-79
2023/06/26 06:57:52;;;;;;;;;32.00;29.00;;;;;;;;5049055;28;8837;-80
2023/06/26 07:00:20;;;;;;;;;14.25;12.50;;;;;;;;5047728;28;9016;-81
2023/06/26 07:02:48;;;;;;;;;7.50;7.50;;;;;;;;5052840;28;8849;-77
2023/06/26 07:05:15;;;;;;;;;12.25;9.25;;;;;;;;5053321;28;8851;-78
2023/06/26 07:07:44;;;;;;;;;9.50;6.25;;;;;;;;5051977;28;8935;-77
2023/06/26 07:10:15;;;;;;;;;6.50;6.50;;;;;;;;5053163;28;8861;-77
2023/06/26 07:12:43;;;;;;;;;6.75;6.75;;;;;;;;5052886;28;8850;-78
2023/06/26 07:15:11;;;;;;;;;6.00;6.00;;;;;;;;5051657;28;8850;-78
2023/06/26 07:17:39;;;;;;;;;6.50;6.50;;;;;;;;5052663;28;9548;-78
2023/06/26 07:20:08;;;;;;;;;6.75;6.75;;;;;;;;5054030;28;8917;-80
2023/06/26 07:22:35;;;;;;;;;7.00;7.00;;;;;;;;5053440;28;8857;-80
2023/06/26 07:25:04;;;;;;;;;6.50;6.50;;;;;;;;5054340;28;8873;-80
2023/06/26 07:27:33;;;;;;;;;5.75;3.50;;;;;;;;5054411;28;8857;-79
2023/06/26 07:30:00;;;;;;;;;6.00;6.00;;;;;;;;5054903;28;8927;-80
2023/06/26 07:32:27;;;;;;;;;5.00;5.00;;;;;;;;5053383;28;8817;-80
2023/06/26 07:34:54;;;;;;;;;5.25;4.25;;;;;;;;5054067;28;9048;-80
2023/06/26 07:37:22;;;;;;;;;7.00;7.00;;;;;;;;5052380;28;8992;-81
2023/06/26 07:39:49;;;;;;;;;5.25;5.25;;;;;;;;5053164;28;8982;-80
2023/06/26 07:42:18;;;;;;;;;6.50;6.00;;;;;;;;5051870;28;8853;-79
2023/06/26 07:44:45;;;;;;;;;5.50;5.50;;;;;;;;5051521;28;8863;-80
2023/06/26 07:47:12;;;;;;;;;5.25;5.25;;;;;;;;5051560;28;8903;-77
2023/06/26 07:49:40;;;;;;;;;7.00;6.00;;;;;;;;5052964;28;8861;-80
2023/06/26 07:52:10;;;;;;;;;6.00;6.00;;;;;;;;5066161;28;8846;-80
2023/06/26 07:54:37;;;;;;;;;10.25;7.00;;;;;;;;5061951;28;8853;-79
2023/06/26 07:57:06;;;;;;;;;6.25;6.25;;;;;;;;5055291;28;8841;-83
2023/06/26 07:59:35;;;;;;;;;6.00;4.25;;;;;;;;5062661;28;8861;-80
2023/06/26 08:02:03;;;;;;;;;3.20;3.20;;;;;;;;5053348;28;8812;-82
2023/06/26 08:04:31;;;;;;;;;4.75;4.50;;;;;;;;5056151;28;8861;-87
2023/06/26 08:07:00;;;;;;;;;6.80;5.00;;;;;;;;5055936;28;8861;-84
2023/06/26 08:09:28;;;;;;;;;6.00;6.00;;;;;;;;5065704;28;8847;-84
2023/06/26 08:11:56;;;;;;;;;7.00;4.60;;;;;;;;5054286;28;8850;-84
2023/06/26 08:14:24;;;;;;;;;7.40;6.80;;;;;;;;5067105;28;8874;-84
2023/06/26 08:16:52;;;;;;;;;4.60;4.60;;;;;;;;5063217;28;8895;-82
2023/06/26 08:19:20;;;;;;;;;5.40;5.40;;;;;;;;5066760;28;8889;-79
2023/06/26 08:21:48;;;;;;;;;3.00;3.00;;;;;;;;5052601;28;8980;-79
2023/06/26 08:24:18;;;;;;;;;3.80;3.80;;;;;;;;5050679;28;8841;-84
2023/06/26 08:26:46;;;;;;;;;6.60;5.20;;;;;;;;5049424;28;8975;-79
2023/06/26 08:29:14;;;;;;;;;4.00;4.00;;;;;;;;5059357;28;8847;-79
2023/06/26 08:31:42;;;;;;;;;6.00;5.00;;;;;;;;5060755;28;8934;-77
2023/06/26 08:34:11;;;;;;;;;2.00;2.00;;;;;;;;5050357;28;8857;-85
2023/06/26 08:36:38;;;;;;;;;5.00;3.60;;;;;;;;5059209;28;8853;-79
2023/06/26 08:39:08;;;;;;;;;2.60;2.60;;;;;;;;5050682;28;8871;-84
2023/06/26 08:41:35;;;;;;;;;3.80;3.80;;;;;;;;5046825;28;9655;-83
2023/06/26 08:44:04;;;;;;;;;6.40;4.80;;;;;;;;5053414;28;8973;-84
2023/06/26 08:46:32;;;;;;;;;3.60;3.60;;;;;;;;5051157;28;8893;-85
2023/06/26 08:49:06;;;;;;;;;5.20;5.20;;;;;;;;5052229;28;8866;-85
2023/06/26 08:51:35;;;;;;;;;3.80;3.80;;;;;;;;5050873;28;8861;-87
2023/06/26 08:54:04;;;;;;;;;3.40;3.40;;;;;;;;5050601;28;8854;-86
2023/06/26 08:56:35;;;;;;;;;3.00;3.00;;;;;;;;5050962;28;8873;-82
2023/06/26 08:59:03;;;;;;;;;4.00;4.00;;;;;;;;5052525;28;8987;-86
2023/06/26 09:01:34;;;;;;;;;2.80;2.80;;;;;;;;5063467;28;8798;-82
2023/06/26 09:04:01;;;;;;;;;3.40;3.40;;;;;;;;5062215;28;8891;-86
2023/06/26 09:06:30;;;;;;;;;3.80;3.80;;;;;;;;5066913;28;8870;-86
2023/06/26 09:08:59;;;;;;;;;2.60;2.60;;;;;;;;5047685;28;8873;-87
2023/06/26 09:11:26;;;;;;;;;1.80;1.80;;;;;;;;5057086;28;8861;-84
2023/06/26 09:13:54;;;;;;;;;3.00;3.00;;;;;;;;5059695;28;8870;-82
2023/06/26 09:16:27;;;;;;;;;3.60;2.80;;;;;;;;5068862;28;8895;-82
2023/06/26 09:18:54;;;;;;;;;2.80;2.00;;;;;;;;5052135;28;8888;-83
2023/06/26 09:21:24;;;;;;;;;2.80;2.80;;;;;;;;5049297;28;8856;-84
2023/06/26 09:23:51;;;;;;;;;3.00;3.00;;;;;;;;5050069;28;8870;-83
2023/06/26 09:26:20;;;;;;;;;3.40;2.00;;;;;;;;5052990;28;8985;-84
2023/06/26 09:28:50;;;;;;;;;1.80;1.80;;;;;;;;5058638;28;9654;-84
2023/06/26 09:31:20;;;;;;;;;1.60;1.60;;;;;;;;5050050;28;8795;-86
2023/06/26 09:33:50;;;;;;;;;2.20;2.20;;;;;;;;5054367;28;8856;-89
2023/06/26 09:36:26;;;;;;;;;2.00;2.00;;;;;;;;5065221;28;8894;-90
2023/06/26 09:38:53;;;;;;;;;2.20;2.20;;;;;;;;5067046;28;8941;-89
2023/06/26 09:41:22;;;;;;;;;2.20;2.00;;;;;;;;5051301;28;8956;-87
2023/06/26 09:43:50;;;;;;;;;2.80;2.80;;;;;;;;5052391;28;8883;-85
2023/06/26 09:46:18;;;;;;;;;5.00;2.80;;;;;;;;5052294;28;8876;-88
2023/06/26 09:48:45;;;;;;;;;3.20;3.20;;;;;;;;5052227;28;8876;-88
2023/06/26 09:51:13;;;;;;;;;1.80;1.80;;;;;;;;5064250;28;8889;-88
2023/06/26 09:53:40;;;;;;;;;3.20;2.60;;;;;;;;5070626;28;8859;-86
2023/06/26 09:56:08;;;;;;;;;1.80;1.80;;;;;;;;5057553;28;8939;-87
2023/06/26 09:58:38;;;;;;;;;0.80;0.80;;;;;;;;5063440;28;9013;-85
2023/06/26 10:01:07;;;;;;;;;0.40;0.40;;;;;;;;5064937;28;8805;-86
2023/06/26 10:03:35;;;;;;;;;2.20;1.40;;;;;;;;5052994;28;8865;-85
2023/06/26 10:06:04;;;;;;;;;2.20;2.20;;;;;;;;5055797;28;8881;-85
2023/06/26 10:08:31;;;;;;;;;3.60;2.20;;;;;;;;5055806;28;9008;-80
2023/06/26 10:11:02;;;;;;;;;1.40;1.40;;;;;;;;5051073;28;8865;-84
2023/06/26 10:13:34;;;;;;;;;1.80;1.80;;;;;;;;5056105;28;8979;-79
2023/06/26 10:16:03;;;;;;;;;2.40;1.60;;;;;;;;5058311;28;8875;-83
2023/06/26 10:18:33;;;;;;;;;3.80;3.80;;;;;;;;5065920;28;8987;-85
2023/06/26 10:21:03;;;;;;;;;1.20;1.20;;;;;;;;5054729;28;9718;-84
2023/06/26 10:23:33;;;;;;;;;2.60;1.80;;;;;;;;5049046;28;8867;-81
2023/06/26 10:26:03;;;;;;;;;1.80;1.80;;;;;;;;5053697;28;9243;-86
2023/06/26 10:28:32;;;;;;;;;5.40;2.40;;;;;;;;5051992;28;8855;-83
2023/06/26 10:31:02;;;;;;;;;4.00;2.00;;;;;;;;5053810;28;8909;-86
2023/06/26 10:33:29;;;;;;;;;2.60;2.00;;;;;;;;5052844;28;8983;-84
2023/06/26 10:36:14;;;;;;;;;1.40;1.00;;;;;;;;5052237;28;8893;-86
2023/06/26 10:38:51;;;;;;;;;0.20;0.20;;;;;;;;5050596;28;8854;-80
2023/06/26 10:41:21;;;;;;;;;1.40;0.80;;;;;;;;5049561;28;8846;-80
2023/06/26 10:43:51;;;;;;;;;3.40;1.80;;;;;;;;5049466;28;8934;-80
2023/06/26 10:46:21;;;;;;;;;1.80;1.80;;;;;;;;5037661;28;8888;-83
2023/06/26 10:48:59;;;;;;;;;2.20;2.00;;;;;;;;5048486;28;8853;-84
2023/06/26 10:51:27;;;;;;;;;4.00;2.00;;;;;;;;5054171;28;8865;-82
2023/06/26 10:54:00;;;;;;;;;1.40;1.40;;;;;;;;5056073;28;8889;-83
2023/06/26 10:56:47;;;;;;;;;1.20;1.20;;;;;;;;5049800;28;8880;-88
2023/06/26 10:59:19;;;;;;;;;1.80;1.80;;;;;;;;5048387;28;8845;-84
2023/06/26 11:02:06;;;;;;;;;;;;;;;;;;;;;
2023/06/26 11:04:43;;;;;;;;;2.20;1.00;;;;;;;;5048342;28;8841;-83
2023/06/26 11:07:18;;;;;;;;;0.80;0.80;;;;;;;;5048581;28;9644;-84
2023/06/26 11:10:01;;;;;;;;;1.20;0.80;;;;;;;;5051078;28;8885;-84
2023/06/26 11:12:36;;;;;;;;;0.60;0.60;;;;;;;;5044790;28;9007;-84
2023/06/26 11:15:04;;;;;;;;;1.80;1.80;;;;;;;;5050758;28;9629;-83
2023/06/26 11:17:33;;;;;;;;;1.80;1.80;;;;;;;;5056417;28;8869;-83
2023/06/26 11:20:00;;;;;;;;;0.00;0.00;;;;;;;;5051226;28;8861;-82
2023/06/26 11:22:29;;;;;;;;;1.80;1.80;;;;;;;;5054826;28;8846;-88
2023/06/26 11:25:01;;;;;;;;;3.60;1.80;;;;;;;;5051871;28;8904;-83
2023/06/26 11:27:32;;;;;;;;;1.20;0.40;;;;;;;;5054907;28;8881;-83
2023/06/26 11:30:00;;;;;;;;;1.20;1.20;;;;;;;;5056286;28;8939;-83
2023/06/26 11:32:29;;;;;;;;;4.20;1.00;;;;;;;;5053063;28;8973;-83
2023/06/26 11:34:57;;;;;;;;;1.80;1.80;;;;;;;;5059182;28;8867;-82
2023/06/26 11:37:26;;;;;;;;;1.80;1.80;;;;;;;;5054398;28;9694;-81
2023/06/26 11:39:53;;;;;;;;;1.20;0.80;;;;;;;;5054259;28;8865;-81
2023/06/26 11:42:21;;;;;;;;;1.40;1.40;;;;;;;;5050862;28;8969;-82
2023/06/26 11:44:49;;;;;;;;;1.20;1.20;;;;;;;;5055642;28;8862;-82
2023/06/26 11:47:17;;;;;;;;;0.20;0.20;;;;;;;;5051288;28;8850;-83
2023/06/26 11:49:45;;;;;;;;;1.60;1.20;;;;;;;;5051141;28;8885;-82
2023/06/26 11:52:18;;;;;;;;;0.80;0.80;;;;;;;;5053870;28;8833;-80
2023/06/26 11:54:45;;;;;;;;;1.00;1.00;;;;;;;;5053041;28;8881;-82
2023/06/26 11:57:17;;;;;;;;;2.60;2.60;;;;;;;;5051807;28;8897;-81
2023/06/26 11:59:44;;;;;;;;;0.20;0.20;;;;;;;;5062907;28;9283;-81
2023/06/26 12:02:14;;;;;;;;;0.00;0.00;;;;;;;;5052572;28;9054;-82
2023/06/26 12:04:43;;;;;;;;;1.20;1.20;;;;;;;;5051168;28;8930;-82
2023/06/26 12:07:11;;;;;;;;;0.60;0.60;;;;;;;;5050579;28;8865;-82
2023/06/26 12:09:45;;;;;;;;;0.80;0.80;;;;;;;;5051303;28;8853;-82
2023/06/26 12:12:13;;;;;;;;;1.60;0.40;;;;;;;;5039532;28;8845;-82
2023/06/26 12:14:42;;;;;;;;;0.20;0.20;;;;;;;;5052185;28;8857;-85
2023/06/26 12:17:11;;;;;;;;;1.80;1.80;;;;;;;;5053422;28;8865;-82
2023/06/26 12:19:40;;;;;;;;;1.00;0.20;;;;;;;;5066869;28;8916;-83
2023/06/26 12:22:10;;;;;;;;;0.80;0.80;;;;;;;;5053347;28;8995;-83
2023/06/26 12:24:39;;;;;;;;;0.20;0.20;;;;;;;;5051570;28;8822;-83
2023/06/26 12:27:12;;;;;;;;;0.00;0.00;;;;;;;;5061230;28;8984;-82
2023/06/26 12:29:40;;;;;;;;;0.00;0.00;;;;;;;;5053714;28;8869;-83
2023/06/26 12:32:10;;;;;;;;;0.00;0.00;;;;;;;;5053611;28;8806;-82
2023/06/26 12:34:39;;;;;;;;;0.00;0.00;;;;;;;;5056018;28;8889;-82
2023/06/26 12:37:08;;;;;;;;;0.00;0.00;;;;;;;;5051726;28;8868;-83
2023/06/26 12:39:49;;;;;;;;;0.00;0.00;;;;;;;;5051242;28;8878;-84
2023/06/26 12:42:20;;;;;;;;;0.00;0.00;;;;;;;;5051451;28;8887;-82
2023/06/26 12:44:47;;;;;;;;;0.20;0.20;;;;;;;;5051772;28;8983;-83
2023/06/26 12:47:15;;;;;;;;;0.00;0.00;;;;;;;;5052670;28;8858;-84
2023/06/26 12:49:44;;;;;;;;;0.00;0.00;;;;;;;;5052618;28;8968;-81
2023/06/26 12:52:13;;;;;;;;;0.00;0.00;;;;;;;;5054263;28;8920;-82
2023/06/26 12:54:41;;;;;;;;;1.20;0.20;;;;;;;;5062877;28;8885;-84
2023/06/26 12:57:09;;;;;;;;;0.00;0.00;;;;;;;;5056003;28;8861;-84
2023/06/26 12:59:38;;;;;;;;;0.00;0.00;;;;;;;;5052637;28;8885;-82
2023/06/26 13:02:06;;;;;;;;;1.00;0.00;;;;;;;;5058249;28;8866;-83
2023/06/26 13:04:35;;;;;;;;;0.00;0.00;;;;;;;;5062999;28;8843;-82
2023/06/26 13:07:02;;;;;;;;;0.60;0.60;;;;;;;;5065941;28;8855;-83
2023/06/26 13:09:34;;;;;;;;;0.20;0.20;;;;;;;;5059872;28;8851;-83
2023/06/26 13:12:02;;;;;;;;;1.40;0.00;;;;;;;;5050264;28;8861;-84
2023/06/26 13:14:29;;;;;;;;;1.40;0.00;;;;;;;;5049399;28;8861;-81
2023/06/26 13:16:58;;;;;;;;;0.00;0.00;;;;;;;;5049099;28;8869;-80
2023/06/26 13:19:26;;;;;;;;;0.00;0.00;;;;;;;;5050035;28;8886;-83
2023/06/26 13:21:54;;;;;;;;;0.00;0.00;;;;;;;;5051021;28;8861;-82
2023/06/26 13:24:21;;;;;;;;;0.00;0.00;;;;;;;;5051051;28;8861;-84
2023/06/26 13:26:48;;;;;;;;;0.00;0.00;;;;;;;;5055434;28;8858;-92
2023/06/26 13:29:16;;;;;;;;;0.00;0.00;;;;;;;;5052556;28;8930;-82
2023/06/26 13:31:43;;;;;;;;;1.80;0.20;;;;;;;;5050456;28;8924;-82
2023/06/26 13:34:22;;;;;;;;;0.40;0.40;;;;;;;;5051239;28;8846;-84
2023/06/26 13:36:49;;;;;;;;;0.00;0.00;;;;;;;;5051650;28;8897;-84
2023/06/26 13:39:16;;;;;;;;;1.60;0.00;;;;;;;;5049659;28;8869;-82
2023/06/26 13:41:43;;;;;;;;;1.60;1.60;;;;;;;;5049913;28;8841;-84
2023/06/26 13:44:11;;;;;;;;;0.80;0.80;;;;;;;;5049679;28;8874;-85
2023/06/26 13:46:38;;;;;;;;;0.00;0.00;;;;;;;;5057292;28;8972;-80
2023/06/26 13:49:05;;;;;;;;;0.00;0.00;;;;;;;;5051418;28;9640;-82
2023/06/26 13:51:34;;;;;;;;;0.80;0.40;;;;;;;;5046483;28;8884;-81
2023/06/26 13:54:01;;;;;;;;;1.00;0.00;;;;;;;;5052477;28;8877;-82
2023/06/26 13:56:30;;;;;;;;;0.00;0.00;;;;;;;;5054260;28;8980;-84
2023/06/26 13:58:58;;;;;;;;;0.20;0.20;;;;;;;;5055508;28;9027;-85
2023/06/26 14:01:25;;;;;;;;;0.00;0.00;;;;;;;;5057254;28;8789;-89
2023/06/26 14:03:53;;;;;;;;;1.20;0.00;;;;;;;;5048901;28;8887;-85
2023/06/26 14:06:20;;;;;;;;;0.00;0.00;;;;;;;;5050721;28;8861;-85
2023/06/26 14:08:49;;;;;;;;;0.00;0.00;;;;;;;;5066812;28;8847;-86
2023/06/26 14:11:16;;;;;;;;;1.00;0.00;;;;;;;;5065615;28;8851;-80
2023/06/26 14:13:44;;;;;;;;;0.00;0.00;;;;;;;;5052107;28;8991;-82
2023/06/26 14:16:11;;;;;;;;;1.60;0.00;;;;;;;;5049539;28;8879;-85
2023/06/26 14:18:39;;;;;;;;;1.20;0.00;;;;;;;;5061592;28;8981;-84
2023/06/26 14:21:07;;;;;;;;;0.00;0.00;;;;;;;;5054450;28;8865;-82
2023/06/26 14:23:35;;;;;;;;;0.00;0.00;;;;;;;;5040120;28;8971;-84
2023/06/26 14:26:03;;;;;;;;;0.00;0.00;;;;;;;;5052075;28;8870;-84
2023/06/26 14:28:33;;;;;;;;;0.00;0.00;;;;;;;;5041931;28;8888;-87
2023/06/26 14:31:01;;;;;;;;;0.00;0.00;;;;;;;;5051433;28;8790;-87
2023/06/26 14:33:28;;;;;;;;;0.00;0.00;;;;;;;;5051085;28;8873;-89
2023/06/26 14:35:55;;;;;;;;;0.00;0.00;;;;;;;;5051279;28;8850;-89
2023/06/26 14:38:23;;;;;;;;;0.60;0.00;;;;;;;;5050617;28;8850;-81
2023/06/26 14:40:50;;;;;;;;;0.00;0.00;;;;;;;;5055966;28;8839;-81
2023/06/26 14:43:19;;;;;;;;;0.00;0.00;;;;;;;;5056876;28;8877;-81
2023/06/26 14:45:46;;;;;;;;;0.00;0.00;;;;;;;;5048950;28;8853;-80
2023/06/26 14:48:13;;;;;;;;;0.00;0.00;;;;;;;;5048625;28;8972;-84
2023/06/26 14:50:41;;;;;;;;;2.40;0.20;;;;;;;;5056835;28;8842;-82
2023/06/26 14:53:08;;;;;;;;;0.00;0.00;;;;;;;;5047918;28;9048;-77
2023/06/26 14:55:36;;;;;;;;;0.00;0.00;;;;;;;;5047643;28;9285;-82
2023/06/26 14:58:03;;;;;;;;;0.40;0.20;;;;;;;;5042923;28;8879;-78
2023/06/26 15:00:32;;;;;;;;;0.40;0.40;;;;;;;;5048406;28;8820;-77
2023/06/26 15:02:59;;;;;;;;;0.20;0.20;;;;;;;;5048002;28;9624;-80
2023/06/26 15:05:27;;;;;;;;;0.20;0.20;;;;;;;;5047083;28;8870;-79
2023/06/26 15:07:56;;;;;;;;;0.20;0.20;;;;;;;;5047624;28;8976;-79